Weather reports worldwide

Advertisment
Salsburgh, United Kingdom (99024): temperature & dewpoint: 12.06.2019 22:00:00 - 18.06.2019 22:00:00 (BST)Salsburgh, United Kingdom (99024): wind speed & gusts: 12.06.2019 22:00:00 - 18.06.2019 22:00:00 (BST)Salsburgh, United Kingdom (99024): wind direction: 12.06.2019 22:00:00 - 18.06.2019 22:00:00 (BST)Salsburgh, United Kingdom (99024): precipitation: 12.06.2019 22:00:00 - 18.06.2019 22:00:00 (BST)
Date & Time tt [°C] td [°C] ff [km/h] ff [kn] fx [km/h] fx [kn] dd rr [mm]
18.06.2019 22:00:00 10,6 8,9 13 7 - - WSW 0,0
18.06.2019 21:00:00 11,3 8,9 13 7 - - W 0,0
18.06.2019 20:00:00 12,7 9,3 15 8 - - WSW 0,0
18.06.2019 19:00:00 13,2 9,3 15 8 - - WSW 0,0
18.06.2019 18:00:00 13,2 9,7 18 10 - - W 0,0
18.06.2019 17:00:00 13,6 9,1 24 13 - - SW 0,0
18.06.2019 16:00:00 13,7 9,1 24 13 - - WSW 0,0
18.06.2019 15:00:00 14,2 9,2 29 16 - - SW 0,0
18.06.2019 14:00:00 13,0 9,2 29 16 - - WSW 0,0
18.06.2019 13:00:00 11,4 8,5 31 17 50 27 SW 0,0
18.06.2019 12:00:00 12,3 8,9 34 18 48 26 SW 0,0
18.06.2019 11:00:00 12,5 9,0 34 18 52 28 WSW 0,0
18.06.2019 10:00:00 12,2 7,6 26 14 48 26 SW 0,0
18.06.2019 09:00:00 11,6 8,1 37 20 52 28 SSW 0,0
18.06.2019 08:00:00 10,4 8,5 31 17 46 25 SW 0,0
18.06.2019 07:00:00 9,7 8,8 26 14 - - SSW 0,0
18.06.2019 06:00:00 8,8 8,3 21 11 - - S 0,0
18.06.2019 05:00:00 8,7 8,1 18 10 - - S 0,0
18.06.2019 04:00:00 9,0 8,2 16 9 - - S 0,0
18.06.2019 03:00:00 8,6 8,0 15 8 - - S 0,0
18.06.2019 02:00:00 9,0 8,2 15 8 - - S 0,0
18.06.2019 01:00:00 9,5 8,8 18 10 - - S 0,0
18.06.2019 00:00:00 9,8 9,4 15 8 - - S 0,0
17.06.2019 23:00:00 10,0 9,5 13 7 - - SSW 0,0
17.06.2019 22:00:00 10,5 9,5 16 9 - - SSW 0,0
17.06.2019 21:00:00 11,1 10,0 21 11 - - SW 0,2
17.06.2019 20:00:00 10,8 9,6 26 14 - - SW 0,6
17.06.2019 19:00:00 11,6 8,9 29 16 48 26 SW 0,0
17.06.2019 18:00:00 11,8 10,5 28 15 52 28 SSW 0,8
17.06.2019 17:00:00 11,7 8,5 41 22 68 37 SSW 0,0
17.06.2019 16:00:00 13,1 8,3 48 26 67 36 SSW 0,0
17.06.2019 15:00:00 13,4 7,4 42 23 63 34 S 0,0
17.06.2019 14:00:00 14,0 7,1 44 24 63 34 S 0,0
17.06.2019 13:00:00 14,2 8,2 41 22 57 31 SSW 0,0
17.06.2019 12:00:00 13,3 8,2 39 21 57 31 SSW 0,0
17.06.2019 11:00:00 13,2 8,2 39 21 57 31 SSW 0,0
17.06.2019 10:00:00 12,4 8,7 37 20 52 28 SSW 0,0
17.06.2019 09:00:00 12,2 9,6 37 20 52 28 SSW 0,0
17.06.2019 08:00:00 11,1 9,3 37 20 50 27 SSW 0,0
17.06.2019 07:00:00 10,2 8,7 34 18 46 25 SSW 0,0
17.06.2019 06:00:00 9,3 7,9 34 18 48 26 SSW 0,0
17.06.2019 05:00:00 9,4 7,9 35 19 57 31 SSW 0,0
17.06.2019 04:00:00 9,8 8,2 41 22 57 31 SSW 0,0
17.06.2019 03:00:00 9,9 8,5 35 19 54 29 SSW 0,0
17.06.2019 02:00:00 10,8 9,1 39 21 52 28 SSW 0,0
17.06.2019 01:00:00 11,1 10,1 35 19 55 30 S 0,0
17.06.2019 00:00:00 10,7 10,0 29 16 - - SSE 3,8
16.06.2019 23:00:00 10,4 9,0 15 8 - - ESE 0,0
16.06.2019 22:00:00 10,4 8,8 16 9 - - SE 0,0
16.06.2019 21:00:00 10,8 8,5 18 10 - - SSE 0,0
16.06.2019 20:00:00 11,1 7,8 22 12 - - S 0,0
16.06.2019 19:00:00 11,8 8,0 22 12 - - SSE 0,0
16.06.2019 18:00:00 12,0 8,2 28 15 - - S 0,0
16.06.2019 17:00:00 12,4 8,3 29 16 - - S 0,0
16.06.2019 16:00:00 11,3 8,8 8 4 - - NW 0,0
16.06.2019 15:00:00 11,1 8,8 11 6 - - W 0,2
16.06.2019 14:00:00 10,1 8,6 11 6 - - SSE 0,6
16.06.2019 13:00:00 11,1 7,7 18 10 - - W 0,0
16.06.2019 12:00:00 12,0 9,0 15 8 - - WSW 0,4
16.06.2019 11:00:00 11,2 7,4 13 7 - - SSW 0,0
16.06.2019 10:00:00 10,8 7,4 18 10 - - SSW 0,0
16.06.2019 09:00:00 10,6 7,7 24 13 - - SSW 0,0
16.06.2019 08:00:00 10,0 8,1 21 11 - - S 0,0
16.06.2019 07:00:00 9,5 7,6 26 14 - - S 0,0
16.06.2019 06:00:00 8,7 7,2 24 13 - - S 0,0
16.06.2019 05:00:00 8,3 7,1 24 13 - - SSE 0,0
16.06.2019 04:00:00 8,1 7,3 21 11 - - SSE 0,0
16.06.2019 03:00:00 7,7 6,8 22 12 - - S 0,0
16.06.2019 02:00:00 7,7 6,7 22 12 - - SSE 0,0
16.06.2019 01:00:00 8,0 7,1 13 7 - - SSE 0,0
16.06.2019 00:00:00 8,7 7,2 16 9 - - SSE 0,0
15.06.2019 23:00:00 9,5 6,7 13 7 - - S 0,0
15.06.2019 22:00:00 10,5 6,8 16 9 - - S 0,0
15.06.2019 21:00:00 11,4 6,5 16 9 - - SSW 0,0
15.06.2019 20:00:00 12,5 6,2 28 15 46 25 S 0,0
15.06.2019 19:00:00 13,1 7,6 31 17 46 25 S 0,0
15.06.2019 18:00:00 13,5 6,9 34 18 50 27 S 0,0
15.06.2019 17:00:00 14,6 6,8 37 20 52 28 S 0,0
15.06.2019 16:00:00 14,6 8,2 29 16 46 25 S 0,0
15.06.2019 15:00:00 15,9 9,0 21 11 - - SSE 0,0
15.06.2019 14:00:00 13,7 8,5 29 16 - - SSE 0,0
15.06.2019 13:00:00 14,6 7,3 24 13 - - SSE 0,0
15.06.2019 12:00:00 14,0 7,2 18 10 - - ESE 0,0
15.06.2019 11:00:00 13,5 7,8 18 10 - - ESE 0,0
15.06.2019 10:00:00 11,6 8,9 13 7 - - E 0,0
15.06.2019 09:00:00 10,6 8,9 11 6 - - E 0,0
15.06.2019 08:00:00 9,8 8,8 9 5 - - ENE 0,0
15.06.2019 07:00:00 9,6 8,4 8 4 - - ENE 0,0
15.06.2019 06:00:00 9,6 8,1 8 4 - - ESE 0,0
15.06.2019 05:00:00 9,3 8,0 18 10 - - SE 0,0
15.06.2019 04:00:00 9,2 7,7 15 8 - - SE 0,0
15.06.2019 03:00:00 9,0 7,1 18 10 - - E 0,0
15.06.2019 02:00:00 9,0 7,0 16 9 - - E 0,0
15.06.2019 01:00:00 9,4 6,6 16 9 - - E 0,0
15.06.2019 00:00:00 9,4 6,0 13 7 - - ESE 0,0
14.06.2019 23:00:00 9,5 5,7 16 9 - - SE 0,0
14.06.2019 22:00:00 10,1 5,8 18 10 - - SSE 0,0
14.06.2019 21:00:00 10,7 5,9 15 8 - - SSE 0,0
14.06.2019 20:00:00 11,1 6,0 24 13 - - S 0,0
14.06.2019 19:00:00 12,1 5,8 28 15 - - S 0,0
14.06.2019 18:00:00 11,7 7,0 9 5 - - S 0,0
14.06.2019 17:00:00 12,8 5,4 24 13 - - S 0,0
14.06.2019 16:00:00 12,5 5,3 21 11 - - S 0,0
14.06.2019 15:00:00 12,2 5,8 18 10 - - SW 0,0
14.06.2019 14:00:00 10,9 6,5 15 8 - - SSE 0,8
14.06.2019 13:00:00 10,1 5,1 18 10 - - S 0,0
14.06.2019 12:00:00 10,3 4,5 18 10 - - S 0,0
14.06.2019 11:00:00 9,5 4,2 21 11 - - S 0,0
14.06.2019 10:00:00 10,6 5,5 21 11 - - S 0,0
14.06.2019 09:00:00 8,6 4,6 24 13 - - SSW 0,0
14.06.2019 08:00:00 7,9 6,2 21 11 - - SSW 0,0
14.06.2019 07:00:00 6,7 5,2 22 12 - - S 0,0
14.06.2019 06:00:00 5,5 4,8 21 11 - - S 0,0
14.06.2019 05:00:00 4,9 4,4 16 9 - - S 0,0
14.06.2019 04:00:00 5,5 5,1 18 10 - - S 0,2
14.06.2019 03:00:00 6,1 5,8 22 12 - - S 0,2
14.06.2019 02:00:00 7,1 6,9 16 9 - - S 0,0
14.06.2019 01:00:00 7,0 6,7 13 7 - - S 0,2
14.06.2019 00:00:00 7,2 6,7 21 11 - - S 0,0
13.06.2019 23:00:00 7,6 6,7 16 9 - - S 0,0
13.06.2019 22:00:00 7,9 6,2 15 8 - - SSW 0,0
13.06.2019 21:00:00 8,6 5,8 15 8 - - SSW 0,0
13.06.2019 20:00:00 9,0 6,2 13 7 - - SW 0,0
13.06.2019 19:00:00 9,4 6,3 11 6 - - WSW 0,0
13.06.2019 18:00:00 9,5 6,2 13 7 - - SW 0,0
13.06.2019 17:00:00 10,3 5,6 11 6 - - SSW 0,0
13.06.2019 16:00:00 10,3 5,2 11 6 - - SSW 0,0
13.06.2019 15:00:00 11,4 5,0 4 2 - - NNE 0,0
13.06.2019 14:00:00 9,3 3,9 5 3 - - N 0,0
13.06.2019 13:00:00 8,3 3,5 8 4 - - NE 0,0
13.06.2019 12:00:00 8,0 3,5 9 5 - - N 0,0
13.06.2019 11:00:00 8,1 4,2 15 8 - - NE 0,0
13.06.2019 10:00:00 7,9 4,8 11 6 - - N 0,0
13.06.2019 09:00:00 7,4 4,4 9 5 - - NNW 0,0
13.06.2019 08:00:00 7,1 4,4 18 10 - - NNE 0,0
13.06.2019 07:00:00 7,1 4,3 18 10 - - NNE 0,0
13.06.2019 06:00:00 7,2 5,2 18 10 - - NNE 0,0
13.06.2019 05:00:00 7,2 5,5 16 9 - - NE 0,0
13.06.2019 04:00:00 7,5 5,6 22 12 - - NE 0,0
13.06.2019 03:00:00 7,8 5,8 26 14 - - NE 0,0
13.06.2019 02:00:00 7,9 6,8 21 11 - - NE 0,0
13.06.2019 01:00:00 7,9 6,8 29 16 - - NNE 0,2
13.06.2019 00:00:00 8,0 7,4 29 16 - - NNE 0,2
12.06.2019 23:00:00 8,3 7,6 31 17 50 27 NNE 0,4
12.06.2019 22:00:00 8,6 8,3 29 16 48 26 NE 0,4

tt = temperature
td = dewpoint
ff = wind speed
fx = gusts
dd = wind direction
rr = precipitation

Next stations